createdAt,value
2019-05-22T00:01:00.728Z,97057.37
2019-05-22T00:03:31.163Z,97058.36
2019-05-22T00:05:59.895Z,97050.09
2019-05-22T00:08:30.414Z,97051.97
2019-05-22T00:10:59.614Z,97060.89
2019-05-22T00:13:34.940Z,97056.04
2019-05-22T00:16:04.300Z,97058.34
2019-05-22T00:18:33.919Z,97062.31
2019-05-22T00:21:04.552Z,97055.62
2019-05-22T00:23:33.610Z,97062.70
2019-05-22T00:26:02.637Z,97066.73
2019-05-22T00:28:32.159Z,97077.16
2019-05-22T00:31:01.554Z,97077.14
2019-05-22T00:33:31.362Z,97067.91
2019-05-22T00:36:00.791Z,97073.00
2019-05-22T00:38:31.753Z,97075.93
2019-05-22T00:41:05.100Z,97071.55
2019-05-22T00:43:41.967Z,97067.66
2019-05-22T00:46:12.576Z,97064.27
2019-05-22T00:48:41.922Z,97061.09
2019-05-22T00:51:22.532Z,97063.73
2019-05-22T00:54:09.491Z,97065.17
2019-05-22T00:56:52.009Z,97059.34
2019-05-22T00:59:36.787Z,97066.92
2019-05-22T01:02:19.544Z,97062.79
2019-05-22T01:04:49.845Z,97068.36
2019-05-22T01:07:18.562Z,97059.50
2019-05-22T01:09:53.081Z,97063.29
2019-05-22T01:12:43.748Z,97060.35
2019-05-22T01:15:15.093Z,97067.94
2019-05-22T01:17:45.115Z,97066.83
2019-05-22T01:20:19.546Z,97077.38
2019-05-22T01:22:49.320Z,97076.34
2019-05-22T01:25:20.898Z,97078.06
2019-05-22T01:27:49.807Z,97084.36
2019-05-22T01:30:23.705Z,97071.34
2019-05-22T01:32:54.544Z,97070.12
2019-05-22T01:35:37.011Z,97078.95
2019-05-22T01:38:06.502Z,97087.25
2019-05-22T01:40:42.480Z,97089.11
2019-05-22T01:43:13.041Z,97094.10
2019-05-22T01:45:44.356Z,97084.06
2019-05-22T01:48:18.098Z,97078.75
2019-05-22T01:50:49.282Z,97086.27
2019-05-22T01:53:21.033Z,97097.04
2019-05-22T01:55:52.452Z,97096.91
2019-05-22T01:58:21.802Z,97089.67
2019-05-22T02:00:53.787Z,97088.80
2019-05-22T02:03:25.357Z,97080.30
2019-05-22T02:05:55.164Z,97099.52
2019-05-22T02:08:25.490Z,97096.11
2019-05-22T02:10:58.252Z,97097.94
2019-05-22T02:13:31.608Z,97098.20
2019-05-22T02:16:01.834Z,97096.38
2019-05-22T02:18:34.165Z,97101.80
2019-05-22T02:21:05.648Z,97106.50
2019-05-22T02:23:36.050Z,97112.96
2019-05-22T02:26:07.522Z,97104.77
2019-05-22T02:28:39.039Z,97105.72
2019-05-22T02:31:07.748Z,97105.05
2019-05-22T02:33:39.477Z,97100.86
2019-05-22T02:36:08.132Z,97100.64
2019-05-22T02:38:37.640Z,97106.11
2019-05-22T02:41:08.448Z,97106.86
2019-05-22T02:43:37.386Z,97097.91
2019-05-22T02:46:07.679Z,97095.02
2019-05-22T02:48:37.273Z,97100.84
2019-05-22T02:51:06.057Z,97091.78
2019-05-22T02:53:35.157Z,97097.95
2019-05-22T02:56:04.088Z,97099.04
2019-05-22T02:58:33.573Z,97107.48
2019-05-22T03:01:05.602Z,97109.42
2019-05-22T03:03:35.351Z,97108.03
2019-05-22T03:06:10.272Z,97095.52
2019-05-22T03:08:58.402Z,97108.33
2019-05-22T03:11:39.775Z,97113.91
2019-05-22T03:14:09.436Z,97125.27
2019-05-22T03:16:56.432Z,97125.73
2019-05-22T03:19:41.288Z,97126.78
2019-05-22T03:22:31.451Z,97126.62
2019-05-22T03:25:05.441Z,97124.00
2019-05-22T03:27:40.017Z,97133.55
2019-05-22T03:30:24.511Z,97132.64
2019-05-22T03:32:56.722Z,97130.09
2019-05-22T03:35:28.145Z,97133.59
2019-05-22T03:37:59.305Z,97130.97
2019-05-22T03:40:31.009Z,97129.57
2019-05-22T03:43:04.114Z,97132.08
2019-05-22T03:45:33.269Z,97134.55
2019-05-22T03:48:05.276Z,97136.16
2019-05-22T03:50:34.247Z,97130.31
2019-05-22T03:53:18.141Z,97131.12
2019-05-22T03:55:49.043Z,97142.67
2019-05-22T03:58:21.271Z,97147.88
2019-05-22T04:00:53.115Z,97152.97
2019-05-22T04:03:24.427Z,97155.42
2019-05-22T04:05:54.366Z,97152.82
2019-05-22T04:08:26.680Z,97150.17
2019-05-22T04:11:09.896Z,97145.36
2019-05-22T04:13:39.510Z,97142.86
2019-05-22T04:16:10.514Z,97139.53
2019-05-22T04:18:40.880Z,97127.36
2019-05-22T04:21:09.621Z,97133.59
2019-05-22T04:23:40.312Z,97132.23
2019-05-22T04:26:12.799Z,97116.81
2019-05-22T04:28:47.743Z,97102.64
2019-05-22T04:31:16.923Z,97108.81
2019-05-22T04:33:45.666Z,97108.94
2019-05-22T04:36:15.221Z,97105.97
2019-05-22T04:38:46.521Z,97099.59
2019-05-22T04:41:16.993Z,97094.31
2019-05-22T04:43:45.808Z,97084.14
2019-05-22T04:46:16.712Z,97071.47
2019-05-22T04:48:46.612Z,97086.20
2019-05-22T04:51:23.603Z,97089.77
2019-05-22T04:53:53.536Z,97101.78
2019-05-22T04:56:23.029Z,97109.04
2019-05-22T04:58:53.483Z,97122.66
2019-05-22T05:01:24.152Z,97126.03
2019-05-22T05:03:53.583Z,97132.34
2019-05-22T05:06:25.017Z,97124.25
2019-05-22T05:08:54.324Z,97116.42
2019-05-22T05:11:23.232Z,97111.20
2019-05-22T05:13:52.211Z,97128.37
2019-05-22T05:16:20.868Z,97121.59
2019-05-22T05:18:49.511Z,97120.09
2019-05-22T05:21:18.610Z,97121.70
2019-05-22T05:23:47.487Z,97130.38
2019-05-22T05:26:16.818Z,97130.38
2019-05-22T05:28:46.297Z,97132.13
2019-05-22T05:31:15.338Z,97130.59
2019-05-22T05:33:55.759Z,97130.59
2019-05-22T05:36:24.610Z,97130.91
2019-05-22T05:38:56.307Z,97131.59
2019-05-22T05:41:24.884Z,97128.51
2019-05-22T05:43:53.736Z,97135.75
2019-05-22T05:46:22.484Z,97141.72
2019-05-22T05:48:52.397Z,97144.72
2019-05-22T05:51:23.374Z,97150.42
2019-05-22T05:54:04.854Z,97136.34
2019-05-22T05:56:35.699Z,97128.36
2019-05-22T05:59:07.650Z,97127.64
2019-05-22T06:01:41.400Z,97128.53
2019-05-22T06:04:12.427Z,97124.62
2019-05-22T06:06:44.049Z,97130.44
2019-05-22T06:09:16.840Z,97130.02
2019-05-22T06:11:48.858Z,97127.27
2019-05-22T06:14:30.066Z,97134.80
2019-05-22T06:17:08.747Z,97133.09
2019-05-22T06:19:46.553Z,97141.05
2019-05-22T06:22:17.358Z,97147.19
2019-05-22T06:24:52.194Z,97139.73
2019-05-22T06:27:25.746Z,97142.27
2019-05-22T06:30:06.349Z,97136.72
2019-05-22T06:33:15.108Z,97132.05
2019-05-22T06:35:46.267Z,97123.88
2019-05-22T06:38:48.009Z,97116.45
2019-05-22T06:41:18.851Z,97113.13
2019-05-22T06:43:50.722Z,97104.27
2019-05-22T06:46:44.643Z,97100.27
2019-05-22T06:49:32.503Z,97104.97
2019-05-22T06:52:01.876Z,97101.09
2019-05-22T06:54:30.738Z,97096.65
2019-05-22T06:56:59.401Z,97094.46
2019-05-22T06:59:28.343Z,97102.60
2019-05-22T07:02:01.521Z,97091.22
2019-05-22T07:04:30.972Z,97086.89
2019-05-22T07:07:00.466Z,97082.25
2019-05-22T07:09:29.733Z,97080.51
2019-05-22T07:11:58.661Z,97075.43
2019-05-22T07:14:28.858Z,97065.83
2019-05-22T07:17:00.063Z,97055.37
2019-05-22T07:19:29.195Z,97055.18
2019-05-22T07:21:59.029Z,97054.44
2019-05-22T07:24:29.279Z,97058.39
2019-05-22T07:27:01.118Z,97046.63
2019-05-22T07:29:30.309Z,97037.49
2019-05-22T07:32:02.324Z,97035.37
2019-05-22T07:34:31.131Z,97030.79
2019-05-22T07:36:59.985Z,97029.02
2019-05-22T07:39:33.373Z,97025.61
2019-05-22T07:42:02.033Z,97019.53
2019-05-22T07:44:30.735Z,97026.28
2019-05-22T07:47:00.065Z,97025.74
2019-05-22T07:49:29.217Z,97029.33
2019-05-22T07:52:01.724Z,97029.94
2019-05-22T07:54:28.724Z,97036.10
2019-05-22T07:56:57.601Z,97041.17
2019-05-22T07:59:26.472Z,97030.36
2019-05-22T08:01:58.457Z,97024.41
2019-05-22T08:04:27.438Z,97022.03
2019-05-22T08:06:56.788Z,97024.09
2019-05-22T08:09:26.094Z,97021.42
2019-05-22T08:11:54.906Z,97017.85
2019-05-22T08:14:24.357Z,97018.50
2019-05-22T08:16:53.572Z,97009.56
2019-05-22T08:19:23.344Z,97005.68
2019-05-22T08:22:06.256Z,96998.39
2019-05-22T08:24:24.767Z,96994.52
2019-05-22T08:26:55.176Z,96987.09
2019-05-22T08:29:24.284Z,96977.47
2019-05-22T08:31:53.467Z,96980.05
2019-05-22T08:34:24.210Z,96985.15
2019-05-22T08:36:54.125Z,96979.23
2019-05-22T08:39:23.762Z,96983.95
2019-05-22T08:41:58.842Z,96973.43
2019-05-22T08:44:24.622Z,96970.26
2019-05-22T08:46:53.861Z,96971.67
2019-05-22T08:49:23.947Z,96970.48
2019-05-22T08:51:52.869Z,96970.87
2019-05-22T08:54:21.932Z,96969.30
2019-05-22T08:56:52.035Z,96966.23
2019-05-22T08:59:21.590Z,96969.60
2019-05-22T09:01:50.636Z,96965.52
2019-05-22T09:04:23.729Z,96962.69
2019-05-22T09:06:52.502Z,96949.58
2019-05-22T09:09:21.343Z,96952.33
2019-05-22T09:11:50.137Z,96946.82
2019-05-22T09:14:19.042Z,96954.09
2019-05-22T09:16:47.994Z,96949.38
2019-05-22T09:19:16.840Z,96942.64
2019-05-22T09:21:45.793Z,96940.97
2019-05-22T09:24:16.804Z,96941.36
2019-05-22T09:26:45.556Z,96935.69
2019-05-22T09:29:14.427Z,96935.38
2019-05-22T09:31:43.385Z,96929.48
2019-05-22T09:34:12.149Z,96938.16
2019-05-22T09:36:41.016Z,96945.62
2019-05-22T09:39:10.661Z,96944.37
2019-05-22T09:41:39.335Z,96943.25
2019-05-22T09:44:08.286Z,96943.01
2019-05-22T09:46:36.928Z,96935.53
2019-05-22T09:49:06.150Z,96932.84
2019-05-22T09:51:34.836Z,96941.66
2019-05-22T09:54:03.776Z,96937.58
2019-05-22T09:56:32.606Z,96944.89
2019-05-22T09:59:01.790Z,96942.20
2019-05-22T10:01:31.093Z,96929.27
2019-05-22T10:03:59.955Z,96937.89
2019-05-22T10:06:28.668Z,96933.84
2019-05-22T10:08:57.420Z,96935.58
2019-05-22T10:11:27.759Z,96934.13
2019-05-22T10:13:58.034Z,96933.12
2019-05-22T10:16:26.733Z,96936.47
2019-05-22T10:18:55.606Z,96924.84
2019-05-22T10:21:24.691Z,96926.12
2019-05-22T10:23:53.798Z,96915.45
2019-05-22T10:26:22.923Z,96916.23
2019-05-22T10:28:53.227Z,96923.33
2019-05-22T10:31:22.631Z,96912.42
2019-05-22T10:33:52.174Z,96916.95
2019-05-22T10:36:22.751Z,96918.34
2019-05-22T10:38:51.605Z,96907.37
2019-05-22T10:41:21.222Z,96901.84
2019-05-22T10:43:50.942Z,96901.28
2019-05-22T10:46:19.619Z,96899.45
2019-05-22T10:48:49.267Z,96895.91
2019-05-22T10:51:18.126Z,96897.40
2019-05-22T10:53:47.439Z,96890.09
2019-05-22T10:56:19.311Z,96882.41
2019-05-22T10:58:48.455Z,96886.13
2019-05-22T11:01:17.484Z,96881.60
2019-05-22T11:03:47.074Z,96883.61
2019-05-22T11:06:16.272Z,96879.23
2019-05-22T11:08:45.360Z,96864.74
2019-05-22T11:11:15.143Z,96875.13
2019-05-22T11:13:59.862Z,96875.94
2019-05-22T11:16:14.541Z,96875.03
2019-05-22T11:18:43.664Z,96870.90
2019-05-22T11:21:12.501Z,96873.89
2019-05-22T11:23:51.580Z,96879.80
2019-05-22T11:26:12.072Z,96876.95
2019-05-22T11:28:40.901Z,96881.08
2019-05-22T11:31:09.526Z,96873.05
2019-05-22T11:33:38.211Z,96861.00
2019-05-22T11:36:07.437Z,96859.33
2019-05-22T11:38:36.112Z,96851.53
2019-05-22T11:41:05.804Z,96845.95
2019-05-22T11:43:37.528Z,96841.65
2019-05-22T11:46:06.364Z,96841.97
2019-05-22T11:48:35.143Z,96846.22
2019-05-22T11:51:03.846Z,96841.14
2019-05-22T11:53:32.711Z,96840.08
2019-05-22T11:56:01.422Z,96842.70
2019-05-22T11:58:30.116Z,96838.13
2019-05-22T12:00:58.766Z,96838.63
2019-05-22T12:03:28.969Z,96832.25
2019-05-22T12:05:58.103Z,96841.38
2019-05-22T12:08:27.203Z,96830.55
2019-05-22T12:10:56.510Z,96817.45
2019-05-22T12:13:26.044Z,96820.70
2019-05-22T12:15:56.362Z,96814.47
2019-05-22T12:18:26.117Z,96811.89
2019-05-22T12:20:54.783Z,96808.05
2019-05-22T12:23:24.305Z,96813.24
2019-05-22T12:25:53.052Z,96816.83
2019-05-22T12:28:22.030Z,96819.28
2019-05-22T12:30:50.871Z,96812.67
2019-05-22T12:33:19.923Z,96810.13
2019-05-22T12:35:49.352Z,96803.30
2019-05-22T12:38:26.688Z,96801.30
2019-05-22T12:40:54.381Z,96788.28
2019-05-22T12:43:23.709Z,96776.73
2019-05-22T12:45:53.573Z,96784.93
2019-05-22T12:48:23.587Z,96786.77
2019-05-22T12:50:52.427Z,96788.34
2019-05-22T12:53:23.177Z,96785.97
2019-05-22T12:55:52.595Z,96780.75
2019-05-22T12:58:21.526Z,96779.92
2019-05-22T13:00:50.686Z,96779.61
2019-05-22T13:03:20.998Z,96780.66
2019-05-22T13:05:51.241Z,96796.12
2019-05-22T13:08:21.747Z,96795.72
2019-05-22T13:10:50.744Z,96795.15
2019-05-22T13:13:20.066Z,96788.10
2019-05-22T13:15:49.600Z,96786.59
2019-05-22T13:18:20.636Z,96795.61
2019-05-22T13:20:50.984Z,96791.25
2019-05-22T13:23:22.784Z,96778.83
2019-05-22T13:25:52.178Z,96779.19
2019-05-22T13:28:21.888Z,96782.06
2019-05-22T13:30:53.605Z,96775.88
2019-05-22T13:33:25.907Z,96778.09
2019-05-22T13:35:56.117Z,96773.57
2019-05-22T13:38:25.090Z,96774.73
2019-05-22T13:40:54.196Z,96766.39
2019-05-22T13:43:24.045Z,96772.73
2019-05-22T13:45:53.466Z,96773.88
2019-05-22T13:48:22.188Z,96767.78
2019-05-22T13:50:51.546Z,96764.53
2019-05-22T13:53:22.420Z,96762.66
2019-05-22T13:55:52.033Z,96749.17
2019-05-22T13:58:21.671Z,96749.30
2019-05-22T14:00:51.669Z,96751.30
2019-05-22T14:03:20.898Z,96742.52
2019-05-22T14:05:50.143Z,96743.64
2019-05-22T14:08:19.461Z,96739.98
2019-05-22T14:10:50.188Z,96732.34
2019-05-22T14:13:19.206Z,96735.28
2019-05-22T14:15:55.790Z,96739.87
2019-05-22T14:18:18.764Z,96739.56
2019-05-22T14:20:49.170Z,96734.66
2019-05-22T14:23:18.130Z,96736.53
2019-05-22T14:25:50.194Z,96742.50
2019-05-22T14:28:19.322Z,96746.46
2019-05-22T14:30:48.111Z,96738.76
2019-05-22T14:33:16.951Z,96739.37
2019-05-22T14:35:48.736Z,96725.31
2019-05-22T14:38:17.211Z,96718.52
2019-05-22T14:40:46.012Z,96719.83
2019-05-22T14:43:15.086Z,96722.63
2019-05-22T14:45:43.931Z,96721.97
2019-05-22T14:48:13.136Z,96725.31
2019-05-22T14:50:41.949Z,96725.73
2019-05-22T14:53:12.479Z,96729.19
2019-05-22T14:55:41.568Z,96719.67
2019-05-22T14:58:11.691Z,96715.98
2019-05-22T15:00:41.757Z,96715.34
2019-05-22T15:03:11.231Z,96704.25
2019-05-22T15:05:40.196Z,96698.36
2019-05-22T15:08:08.952Z,96700.20
2019-05-22T15:10:38.252Z,96707.11
2019-05-22T15:13:08.058Z,96702.65
2019-05-22T15:15:40.313Z,96701.92
2019-05-22T15:18:07.513Z,96707.39
2019-05-22T15:20:44.453Z,96712.73
2019-05-22T15:23:13.575Z,96701.41
2019-05-22T15:25:42.251Z,96703.84
2019-05-22T15:28:11.968Z,96700.66
2019-05-22T15:30:41.039Z,96702.07
2019-05-22T15:33:09.796Z,96694.97
2019-05-22T15:35:38.759Z,96695.02
2019-05-22T15:38:10.427Z,96694.92
2019-05-22T15:40:39.747Z,96695.98
2019-05-22T15:43:09.653Z,96697.45
2019-05-22T15:45:40.231Z,96694.00
2019-05-22T15:48:12.319Z,96693.97
2019-05-22T15:50:44.909Z,96692.84
2019-05-22T15:53:15.303Z,96694.14
2019-05-22T15:55:47.661Z,96698.88
2019-05-22T15:58:18.126Z,96696.27
2019-05-22T16:00:47.741Z,96700.30
2019-05-22T16:03:21.260Z,96699.77
2019-05-22T16:05:51.673Z,96693.24
2019-05-22T16:08:20.776Z,96695.53
2019-05-22T16:10:52.356Z,96697.09
2019-05-22T16:13:22.986Z,96695.25
2019-05-22T16:15:54.831Z,96690.80
2019-05-22T16:18:28.484Z,96687.59
2019-05-22T16:21:01.373Z,96697.02
2019-05-22T16:23:33.216Z,96698.94
2019-05-22T16:26:03.537Z,96691.78
2019-05-22T16:28:36.305Z,96699.87
2019-05-22T16:31:07.797Z,96701.81
2019-05-22T16:33:38.017Z,96695.02
2019-05-22T16:36:06.995Z,96692.56
2019-05-22T16:38:37.648Z,96685.27
2019-05-22T16:41:06.825Z,96693.94
2019-05-22T16:43:49.033Z,96690.36
2019-05-22T16:46:10.030Z,96690.90
2019-05-22T16:48:39.812Z,96696.09
2019-05-22T16:51:10.421Z,96701.16
2019-05-22T16:53:40.165Z,96696.86
2019-05-22T16:56:11.324Z,96702.92
2019-05-22T16:58:40.203Z,96702.53
2019-05-22T17:01:10.190Z,96700.98
2019-05-22T17:03:40.346Z,96706.63
2019-05-22T17:06:09.162Z,96707.30
2019-05-22T17:08:37.802Z,96701.18
2019-05-22T17:11:08.033Z,96705.13
2019-05-22T17:13:36.926Z,96709.02
2019-05-22T17:16:06.981Z,96708.70
2019-05-22T17:18:46.623Z,96708.83
2019-05-22T17:21:08.913Z,96707.16
2019-05-22T17:23:37.647Z,96698.69
2019-05-22T17:26:07.318Z,96699.39
2019-05-22T17:28:36.243Z,96698.63
2019-05-22T17:31:05.995Z,96702.20
2019-05-22T17:33:35.486Z,96698.02
2019-05-22T17:36:05.787Z,96695.18
2019-05-22T17:38:35.351Z,96690.27
2019-05-22T17:41:04.801Z,96697.06
2019-05-22T17:43:34.208Z,96699.39
2019-05-22T17:46:04.292Z,96702.45
2019-05-22T17:48:33.814Z,96699.45
2019-05-22T17:51:03.131Z,96708.23
2019-05-22T17:53:31.861Z,96711.14
2019-05-22T17:56:00.533Z,96712.94
2019-05-22T17:58:30.381Z,96718.09
2019-05-22T18:01:00.573Z,96720.42
2019-05-22T18:03:29.473Z,96721.00
2019-05-22T18:05:58.567Z,96725.28
2019-05-22T18:08:28.039Z,96729.71
2019-05-22T18:10:57.264Z,96738.37
2019-05-22T18:13:26.381Z,96739.79
2019-05-22T18:15:55.084Z,96743.82
2019-05-22T18:18:23.802Z,96750.39
2019-05-22T18:20:52.483Z,96747.68
2019-05-22T18:23:21.302Z,96758.12
2019-05-22T18:25:50.238Z,96756.90
2019-05-22T18:28:19.278Z,96755.78
2019-05-22T18:30:48.171Z,96759.98
2019-05-22T18:33:16.820Z,96762.45
2019-05-22T18:35:45.479Z,96765.91
2019-05-22T18:38:14.212Z,96772.14
2019-05-22T18:40:42.788Z,96773.12
2019-05-22T18:43:11.841Z,96772.75
2019-05-22T18:45:40.665Z,96782.02
2019-05-22T18:48:09.823Z,96782.95
2019-05-22T18:50:38.683Z,96791.13
2019-05-22T18:53:07.728Z,96796.75
2019-05-22T18:55:36.423Z,96799.80
2019-05-22T18:58:05.300Z,96794.12
2019-05-22T19:00:34.532Z,96797.61
2019-05-22T19:03:03.469Z,96804.00
2019-05-22T19:05:36.059Z,96815.09
2019-05-22T19:08:07.610Z,96820.30
2019-05-22T19:10:36.403Z,96824.58
2019-05-22T19:13:05.215Z,96835.23
2019-05-22T19:15:33.890Z,96837.91
2019-05-22T19:18:02.641Z,96842.50
2019-05-22T19:20:31.381Z,96842.98
2019-05-22T19:23:03.174Z,96844.06
2019-05-22T19:25:32.006Z,96850.20
2019-05-22T19:28:00.763Z,96847.84
2019-05-22T19:30:29.986Z,96854.80
2019-05-22T19:32:58.908Z,96857.45
2019-05-22T19:35:27.609Z,96856.44
2019-05-22T19:37:56.692Z,96854.53
2019-05-22T19:40:25.492Z,96858.13
2019-05-22T19:42:54.706Z,96861.84
2019-05-22T19:45:23.427Z,96857.75
2019-05-22T19:47:55.903Z,96866.38
2019-05-22T19:50:25.758Z,96865.55
2019-05-22T19:52:55.763Z,96868.98
2019-05-22T19:55:27.724Z,96864.81
2019-05-22T19:57:57.407Z,96866.86
2019-05-22T20:00:26.517Z,96867.42
2019-05-22T20:02:55.541Z,96860.72
2019-05-22T20:05:26.076Z,96859.70
2019-05-22T20:07:55.489Z,96866.24
2019-05-22T20:10:25.466Z,96862.39
2019-05-22T20:12:54.711Z,96864.68
2019-05-22T20:15:24.047Z,96869.54
2019-05-22T20:17:52.703Z,96867.97
2019-05-22T20:20:23.281Z,96863.80
2019-05-22T20:22:52.346Z,96859.02
2019-05-22T20:25:22.193Z,96870.22
2019-05-22T20:27:51.283Z,96868.41
2019-05-22T20:30:21.974Z,96872.91
2019-05-22T20:32:51.042Z,96874.09
2019-05-22T20:35:20.456Z,96880.49
2019-05-22T20:37:49.481Z,96877.02
2019-05-22T20:40:20.396Z,96879.75
2019-05-22T20:42:49.452Z,96879.16
2019-05-22T20:45:21.168Z,96882.69
2019-05-22T20:47:54.413Z,96881.23
2019-05-22T20:50:24.545Z,96888.95
2019-05-22T20:52:53.467Z,96893.55
2019-05-22T20:55:22.728Z,96884.58
2019-05-22T20:57:53.127Z,96886.88
2019-05-22T21:00:21.951Z,96888.33
2019-05-22T21:02:53.643Z,96884.53
2019-05-22T21:05:25.429Z,96883.37
2019-05-22T21:07:57.001Z,96887.14
2019-05-22T21:10:26.147Z,96897.37
2019-05-22T21:12:56.437Z,96896.91
2019-05-22T21:15:25.159Z,96898.39
2019-05-22T21:17:55.786Z,96901.44
2019-05-22T21:20:25.904Z,96898.20
2019-05-22T21:22:54.933Z,96901.48
2019-05-22T21:25:25.003Z,96902.16
2019-05-22T21:27:54.029Z,96912.55
2019-05-22T21:30:24.064Z,96913.33
2019-05-22T21:32:53.818Z,96917.20
2019-05-22T21:35:23.736Z,96908.17
2019-05-22T21:37:52.845Z,96917.33
2019-05-22T21:40:24.535Z,96923.67
2019-05-22T21:42:54.892Z,96927.52
2019-05-22T21:45:24.174Z,96924.70
2019-05-22T21:47:52.857Z,96923.41
2019-05-22T21:50:21.971Z,96923.81
2019-05-22T21:52:50.608Z,96918.69
2019-05-22T21:55:20.024Z,96904.25
2019-05-22T21:57:48.911Z,96898.81
2019-05-22T22:00:25.028Z,96900.61
2019-05-22T22:02:54.757Z,96898.34
2019-05-22T22:05:23.673Z,96896.84
2019-05-22T22:07:52.550Z,96903.14
2019-05-22T22:10:22.779Z,96907.30
2019-05-22T22:12:53.624Z,96915.78
2019-05-22T22:15:34.860Z,96914.89
2019-05-22T22:18:06.457Z,96922.37
2019-05-22T22:20:35.547Z,96919.89
2019-05-22T22:23:05.466Z,96913.98
2019-05-22T22:25:34.600Z,96908.43
2019-05-22T22:28:03.391Z,96899.33
2019-05-22T22:30:50.143Z,96903.84
2019-05-22T22:33:23.577Z,96903.64
2019-05-22T22:35:53.911Z,96906.56
2019-05-22T22:38:25.034Z,96910.70
2019-05-22T22:40:56.962Z,96908.09
2019-05-22T22:43:32.542Z,96902.44
2019-05-22T22:46:19.954Z,96914.75
2019-05-22T22:48:51.840Z,96919.27
2019-05-22T22:51:22.307Z,96919.27
2019-05-22T22:53:51.860Z,96916.13
2019-05-22T22:56:20.866Z,96916.13
2019-05-22T22:58:49.579Z,96928.89
2019-05-22T23:01:21.491Z,96931.55
2019-05-22T23:03:52.850Z,96931.88
2019-05-22T23:06:21.792Z,96937.42
2019-05-22T23:08:51.900Z,96934.39
2019-05-22T23:11:22.627Z,96937.04
2019-05-22T23:13:52.642Z,96928.30
2019-05-22T23:16:23.156Z,96929.27
2019-05-22T23:19:13.330Z,96932.30
2019-05-22T23:21:40.684Z,96943.31
2019-05-22T23:24:09.896Z,96943.81
2019-05-22T23:26:40.273Z,96955.98
2019-05-22T23:29:09.004Z,96954.13
2019-05-22T23:31:38.370Z,96948.59
2019-05-22T23:34:09.127Z,96947.75
2019-05-22T23:36:39.508Z,96948.42
2019-05-22T23:39:12.961Z,96951.02
2019-05-22T23:41:43.131Z,96946.23
2019-05-22T23:44:14.462Z,96943.06
2019-05-22T23:46:45.018Z,96941.22
2019-05-22T23:49:16.053Z,96939.42
2019-05-22T23:51:45.498Z,96943.33
2019-05-22T23:54:14.359Z,96939.30
2019-05-22T23:56:44.447Z,96937.86
2019-05-22T23:59:16.763Z,96927.55
